Fabian Garcia SC Data

Date Time Air Temperature Relative Humidity Dewpoint Heat Index Wind Speed Wind Dir. Rain Solar Radiation Soil Temperature
2m 2m 3m 3m 10cm
US/Mountain F % F F MPH deg in MJ/m^2 F
max avg avg
2021-02-23 00:05:00 37.4 37.2 13.6 37.4 0.0 0.0 0.0 226.7 0.0 0.00 0.0000263 45.5
2021-02-23 00:10:00 37.3 40.8 15.6 37.3 0.0 0.0 0.0 268.4 0.0 0.00 0.0000142 45.5
2021-02-23 00:15:00 36.5 38.8 13.7 36.5 0.0 0.0 0.0 340.7 0.0 0.00 0.0000202 45.4
2021-02-23 00:20:00 35.9 40.3 14.1 35.9 0.0 0.0 0.0 340.8 0.0 0.00 0.0000121 45.3
2021-02-23 00:25:00 36.1 41.9 15.1 36.1 0.0 0.0 0.0 205.8 0.0 0.00 0.0000162 45.3
2021-02-23 00:30:00 36.5 38.3 13.5 36.5 0.0 0.0 0.0 159.7 0.0 0.00 0.0000121 45.2
2021-02-23 00:35:00 36.8 38.8 14.1 36.8 0.0 0.0 0.0 96.0 0.0 0.00 0.0000121 45.2
2021-02-23 00:40:00 36.5 39.2 14.0 36.5 0.0 0.0 0.0 193.2 0.0 0.00 0.0000000 45.1
2021-02-23 00:45:00 36.1 39.8 14.0 36.1 0.0 0.0 0.0 193.3 0.0 0.00 0.0000000 45.0
2021-02-23 00:50:00 36.0 41.0 14.6 36.0 0.0 0.0 0.0 198.8 0.0 0.00 0.0000000 45.0
2021-02-23 00:55:00 35.7 43.4 15.6 35.7 0.0 0.0 0.0 198.9 0.0 0.00 0.0000000 44.9
2021-02-23 01:00:00 35.3 43.9 15.5 35.3 0.0 0.0 0.0 198.9 0.0 0.00 0.0000000 44.8
2021-02-23 01:05:00 35.7 42.2 15.0 35.7 0.0 0.0 0.0 244.7 0.0 0.00 0.0000000 44.8
2021-02-23 01:10:00 35.3 41.4 14.1 35.3 0.0 0.0 0.0 276.7 0.0 0.00 0.0000000 44.7
2021-02-23 01:15:00 34.7 45.1 15.5 34.7 1.3 2.4 1.1 259.7 263.7 0.00 0.0000000 44.7
2021-02-23 01:20:00 34.5 45.5 15.6 34.5 0.0 0.8 0.0 263.3 275.1 0.00 0.0000000 44.6
2021-02-23 01:25:00 34.7 45.4 15.7 34.7 0.0 0.0 0.0 201.5 0.0 0.00 0.0000000 44.5
2021-02-23 01:30:00 34.8 44.4 15.3 34.8 0.0 0.0 0.0 193.1 0.0 0.00 0.0000000 44.5
2021-02-23 01:35:00 35.1 45.6 16.2 35.1 0.0 0.0 0.0 270.9 0.0 0.00 0.0000000 44.4
2021-02-23 01:40:00 35.0 44.6 15.5 35.0 0.0 1.3 0.2 239.2 230.0 0.00 0.0000000 44.4
2021-02-23 01:45:00 34.9 43.8 15.1 34.9 0.0 1.0 0.1 298.0 267.3 0.00 0.0000000 44.3
2021-02-23 01:50:00 34.6 43.6 14.7 34.6 0.0 0.0 0.0 240.7 0.0 0.00 0.0000000 44.2
2021-02-23 01:55:00 35.3 41.5 14.2 35.3 0.0 0.8 0.0 254.8 259.7 0.00 0.0000000 44.2
2021-02-23 02:00:00 35.7 42.8 15.3 35.7 0.0 0.0 0.0 206.2 0.0 0.00 0.0000000 44.1
2021-02-23 02:05:00 35.1 42.7 14.7 35.1 0.0 1.7 0.4 161.2 200.5 0.00 0.0000000 44.1
2021-02-23 02:10:00 34.8 44.0 15.1 34.8 0.0 0.0 0.0 161.2 0.0 0.00 0.0000000 44.0
2021-02-23 02:15:00 34.6 44.2 15.0 34.6 0.0 0.0 0.0 216.1 0.0 0.00 0.0000000 44.0
2021-02-23 02:20:00 34.0 46.8 15.8 34.0 0.0 0.0 0.0 200.0 0.0 0.00 0.0000000 43.9
2021-02-23 02:25:00 34.0 46.0 15.4 34.0 0.0 0.0 0.0 185.1 0.0 0.00 0.0000000 43.9
2021-02-23 02:30:00 33.6 45.8 14.9 33.6 0.0 0.0 0.0 234.8 0.0 0.00 0.0000000 43.8
2021-02-23 02:35:00 33.5 45.9 14.8 33.5 1.5 2.2 0.9 264.7 274.6 0.00 0.0000000 43.8
2021-02-23 02:40:00 34.3 41.6 13.4 34.3 1.2 4.2 2.4 267.6 266.7 0.00 0.0000000 43.7
2021-02-23 02:45:00 34.3 41.9 13.6 34.3 0.0 1.5 0.2 265.5 275.5 0.00 0.0000000 43.6
2021-02-23 02:50:00 34.0 43.4 14.0 34.0 0.0 0.0 0.0 273.4 0.0 0.00 0.0000000 43.6
2021-02-23 02:55:00 33.4 44.2 13.9 33.4 0.0 0.0 0.0 265.1 0.0 0.00 0.0000000 43.5
2021-02-23 03:00:00 33.1 44.4 13.7 33.1 0.0 0.0 0.0 234.0 0.0 0.00 0.0000000 43.5
2021-02-23 03:05:00 32.7 46.6 14.5 32.7 0.0 0.0 0.0 197.0 0.0 0.00 0.0000000 43.4
2021-02-23 03:10:00 32.6 44.0 13.1 32.6 0.0 0.0 0.0 268.2 0.0 0.00 0.0000000 43.4
2021-02-23 03:15:00 32.9 44.1 13.4 32.9 0.0 0.8 0.0 282.5 282.9 0.00 0.0000000 43.3
2021-02-23 03:20:00 32.8 44.1 13.3 32.8 0.0 3.0 0.6 336.8 320.4 0.00 0.0000000 43.3
2021-02-23 03:25:00 32.6 42.9 12.5 32.6 0.0 0.0 0.0 244.8 0.0 0.00 0.0000000 43.2
2021-02-23 03:30:00 33.3 41.6 12.5 33.3 0.0 0.8 0.0 292.7 226.6 0.00 0.0000000 43.2
2021-02-23 03:35:00 34.2 40.1 12.4 34.2 0.0 1.9 0.1 296.1 307.7 0.00 0.0000000 43.1
2021-02-23 03:40:00 34.6 37.1 11.0 34.6 1.0 1.5 0.3 324.9 297.2 0.00 0.0000000 43.1
2021-02-23 03:45:00 35.3 36.0 10.9 35.3 0.8 0.8 0.0 271.2 271.2 0.00 0.0000000 43.0
2021-02-23 03:50:00 35.8 35.5 11.1 35.8 2.1 2.1 1.2 256.7 271.3 0.00 0.0000000 43.0
2021-02-23 03:55:00 35.2 37.6 11.9 35.2 1.7 2.2 1.7 247.8 253.0 0.00 0.0000000 43.0
2021-02-23 04:00:00 35.0 38.4 12.2 35.0 0.0 2.2 1.4 264.8 255.9 0.00 0.0000000 42.9
2021-02-23 04:05:00 34.5 38.1 11.5 34.5 0.0 0.0 0.0 246.1 0.0 0.00 0.0000000 42.9
2021-02-23 04:10:00 34.3 37.6 11.0 34.3 0.0 0.0 0.0 262.6 0.0 0.00 0.0000000 42.8
2021-02-23 04:15:00 34.2 37.6 11.0 34.2 0.0 0.0 0.0 276.4 0.0 0.00 0.0000000 42.7
2021-02-23 04:20:00 34.4 38.8 11.8 34.4 0.0 0.0 0.0 19.5 0.0 0.00 0.0000000 42.7
2021-02-23 04:25:00 34.2 37.2 10.7 34.2 2.1 3.5 2.1 311.2 325.3 0.00 0.0000000 42.6
2021-02-23 04:30:00 34.0 38.6 11.4 34.0 0.0 2.2 0.8 329.4 322.5 0.00 0.0000000 42.6
2021-02-23 04:35:00 33.4 39.4 11.3 33.4 0.0 0.0 0.0 262.8 0.0 0.00 0.0000000 42.5
2021-02-23 04:40:00 33.4 39.3 11.3 33.4 0.0 0.0 0.0 275.1 0.0 0.00 0.0000000 42.5
2021-02-23 04:45:00 33.4 38.4 10.7 33.4 0.0 0.0 0.0 298.0 0.0 0.00 0.0000000 42.5
2021-02-23 04:50:00 33.4 38.9 11.0 33.4 0.8 0.8 0.1 257.6 266.9 0.00 0.0000000 42.4
2021-02-23 04:55:00 33.2 40.9 12.0 33.2 0.0 0.0 0.0 224.8 0.0 0.00 0.0000000 42.4
2021-02-23 05:00:00 32.6 41.3 11.6 32.6 0.0 0.0 0.0 268.5 0.0 0.00 0.0000000 42.3
2021-02-23 05:05:00 32.6 41.6 11.8 32.6 0.0 0.0 0.0 284.2 0.0 0.00 0.0000000 42.3
2021-02-23 05:10:00 32.3 40.3 10.9 32.3 0.0 0.0 0.0 294.8 0.0 0.00 0.0000000 42.2
2021-02-23 05:15:00 32.3 40.7 11.0 32.3 0.0 0.0 0.0 246.1 0.0 0.00 0.0000000 42.2
2021-02-23 05:20:00 32.4 40.0 10.7 32.4 0.0 0.0 0.0 268.7 0.0 0.00 0.0000000 42.1
2021-02-23 05:25:00 32.6 39.7 10.7 32.6 0.0 0.0 0.0 222.0 0.0 0.00 0.0000000 42.1
2021-02-23 05:30:00 32.8 39.0 10.6 32.8 0.0 0.0 0.0 271.0 0.0 0.00 0.0000000 42.0
2021-02-23 05:35:00 33.1 39.2 10.9 33.1 0.0 0.0 0.0 314.8 0.0 0.00 0.0000000 42.0
2021-02-23 05:40:00 33.1 38.9 10.7 33.1 0.0 0.8 0.0 282.7 281.3 0.00 0.0000000 42.0
2021-02-23 05:45:00 33.1 39.4 11.0 33.1 1.2 2.2 0.7 266.5 259.5 0.00 0.0000000 41.9
2021-02-23 05:50:00 33.2 39.2 11.0 33.2 0.0 2.1 0.5 289.8 275.0 0.00 0.0000000 41.9
2021-02-23 05:55:00 33.0 40.0 11.2 33.0 0.0 0.0 0.0 246.2 0.0 0.00 0.0000000 41.8
2021-02-23 06:00:00 32.2 42.5 11.9 32.2 0.0 0.0 0.0 238.3 0.0 0.00 0.0000000 41.8
2021-02-23 06:05:00 32.0 41.8 11.4 32.0 1.7 2.2 1.1 231.0 229.6 0.00 0.0000000 41.7
2021-02-23 06:10:00 31.7 43.4 12.0 31.7 0.0 1.7 0.2 294.8 234.5 0.00 0.0000000 41.7
2021-02-23 06:15:00 31.5 41.5 10.8 31.5 0.0 0.0 0.0 338.2 0.0 0.00 0.0000040 41.7
2021-02-23 06:20:00 31.7 42.2 11.3 31.7 0.0 2.1 0.3 278.4 323.4 0.00 0.0000061 41.6
2021-02-23 06:25:00 31.9 41.4 11.0 31.9 0.0 0.8 0.0 284.4 301.1 0.00 0.0000911 41.6
2021-02-23 06:30:00 31.5 42.2 11.1 31.5 0.0 0.0 0.0 287.8 0.0 0.00 0.0002469 41.5
2021-02-23 06:35:00 31.7 41.0 10.7 31.7 0.0 0.0 0.0 254.6 0.0 0.00 0.0005908 41.5
2021-02-23 06:40:00 31.7 43.4 11.9 31.7 0.0 0.0 0.0 251.3 0.0 0.00 0.0011432 41.4
2021-02-23 06:45:00 31.2 44.4 12.0 31.2 0.0 0.8 0.1 260.5 253.0 0.00 0.0017159 41.4
2021-02-23 06:50:00 30.6 44.7 11.6 30.6 0.0 0.0 0.0 249.8 0.0 0.00 0.0022095 41.4
2021-02-23 06:55:00 30.3 46.4 12.2 30.3 0.0 0.0 0.0 247.6 0.0 0.00 0.0035490 41.3
2021-02-23 07:00:00 30.7 44.0 11.3 30.7 3.5 3.7 0.7 245.1 245.5 0.00 0.0086701 41.3
2021-02-23 07:05:00 30.8 45.0 11.9 30.8 3.8 4.4 3.6 263.8 250.2 0.00 0.0128948 41.2
2021-02-23 07:10:00 31.4 44.0 12.0 31.4 3.1 4.4 3.9 260.7 259.7 0.00 0.0179634 41.2
2021-02-23 07:15:00 31.5 43.1 11.6 31.5 3.8 4.4 3.5 257.4 257.1 0.00 0.0237407 41.2
2021-02-23 07:20:00 32.1 41.7 11.4 32.1 2.6 4.2 3.2 254.1 266.6 0.00 0.0305434 41.1
2021-02-23 07:25:00 33.1 40.0 11.3 33.1 2.6 4.0 3.1 265.4 268.5 0.00 0.0372963 41.1
2021-02-23 07:30:00 33.4 38.4 10.7 33.4 3.0 4.0 2.4 271.0 275.2 0.00 0.0433178 41.1
2021-02-23 07:35:00 34.4 37.7 11.2 34.4 0.0 4.7 2.5 273.1 266.9 0.00 0.0483669 41.0
2021-02-23 07:40:00 35.6 37.8 12.3 35.6 0.0 2.1 0.5 256.7 295.2 0.00 0.0533982 41.0
2021-02-23 07:45:00 36.3 35.9 11.8 36.3 0.0 1.7 0.3 273.0 282.5 0.00 0.0585584 40.9
2021-02-23 07:50:00 37.0 35.0 11.8 37.0 1.2 3.5 1.3 270.6 298.9 0.00 0.0637398 40.9
2021-02-23 07:55:00 37.7 34.5 12.2 37.7 1.2 3.0 0.7 284.8 316.6 0.00 0.0690533 40.9
2021-02-23 08:00:00 38.5 32.6 11.6 38.5 1.2 1.5 0.3 37.4 329.2 0.00 0.0744605 40.8
2021-02-23 08:05:00 39.4 32.8 12.6 39.4 1.3 3.8 1.8 343.2 322.3 0.00 0.0801053 40.8
2021-02-23 08:10:00 40.8 32.0 13.2 40.8 3.3 4.2 1.6 343.0 336.4 0.00 0.0851228 40.8
2021-02-23 08:15:00 41.1 30.9 12.6 41.1 0.0 5.6 3.0 319.6 329.3 0.00 0.0903462 40.7
2021-02-23 08:20:00 42.4 29.8 12.9 42.4 2.1 5.6 3.3 294.8 336.6 0.00 0.0956016 40.7
2021-02-23 08:25:00 43.1 27.9 12.1 43.1 3.8 4.6 3.0 343.0 328.5 0.00 0.1009055 40.7
2021-02-23 08:30:00 43.7 27.4 12.2 43.7 3.5 6.0 2.9 335.7 327.5 0.00 0.1062254 40.6
2021-02-23 08:35:00 44.5 26.9 12.5 44.5 1.5 5.6 3.0 4.6 332.2 0.00 0.1115974 40.6
2021-02-23 08:40:00 45.3 27.2 13.4 45.3 3.7 5.8 3.8 300.1 329.1 0.00 0.1169847 40.6
2021-02-23 08:45:00 45.4 26.5 12.9 45.4 2.6 5.5 2.5 262.2 294.1 0.00 0.1220967 40.6
2021-02-23 08:50:00 45.7 27.5 14.0 45.7 4.0 4.2 2.8 264.3 286.8 0.00 0.1277919 40.5
2021-02-23 08:55:00 46.0 26.2 13.2 46.0 3.7 5.5 2.9 313.4 280.4 0.00 0.1338128 40.5
2021-02-23 09:00:00 45.8 27.6 14.2 45.8 1.7 4.6 3.0 304.8 273.0 0.00 0.1365123 40.5
2021-02-23 09:05:00 45.8 25.7 12.6 45.8 4.2 5.3 3.0 265.2 264.1 0.00 0.1476007 40.5
2021-02-23 09:10:00 46.5 25.4 12.9 46.5 2.2 5.1 3.1 275.7 271.1 0.00 0.1495888 40.5
2021-02-23 09:15:00 46.8 25.4 13.2 46.8 3.3 4.9 3.5 288.4 271.7 0.00 0.1501977 40.5
2021-02-23 09:20:00 47.5 25.4 13.8 47.5 3.7 3.8 2.5 274.3 265.8 0.00 0.1550878 40.5
2021-02-23 09:25:00 48.1 26.6 15.3 48.1 3.0 4.2 2.9 255.0 264.3 0.00 0.1593225 40.5
2021-02-23 09:30:00 48.6 24.9 14.3 48.6 4.2 5.8 3.9 249.9 256.5 0.00 0.1636178 40.5
2021-02-23 09:35:00 48.5 27.5 16.4 48.5 2.6 6.7 4.2 328.4 266.7 0.00 0.1677440 40.5
2021-02-23 09:40:00 50.0 24.1 14.7 50.0 4.6 5.5 3.2 256.7 285.8 0.00 0.1718664 40.5
2021-02-23 09:45:00 49.9 24.1 14.6 49.9 4.6 6.2 4.2 260.2 265.2 0.00 0.1757750 40.6
2021-02-23 09:50:00 50.3 25.2 16.0 50.3 5.1 6.2 4.5 331.0 264.8 0.00 0.1797117 40.6
2021-02-23 09:55:00 52.0 25.1 17.3 52.0 1.0 4.4 2.2 302.6 309.9 0.00 0.1836265 40.6
2021-02-23 10:00:00 52.7 22.9 15.8 52.7 0.8 6.2 1.9 334.4 296.9 0.00 0.1872618 40.7
2021-02-23 10:05:00 53.4 21.2 14.6 53.4 2.8 4.0 2.5 244.0 278.4 0.00 0.1939310 40.8
2021-02-23 10:10:00 53.1 20.3 13.3 53.1 3.5 4.6 2.7 245.4 249.3 0.00 0.1947572 40.8
2021-02-23 10:15:00 53.6 20.8 14.4 53.6 3.5 3.7 2.1 231.3 215.2 0.00 0.1981319 40.9
2021-02-23 10:20:00 54.6 18.9 13.0 54.6 2.1 4.0 2.5 161.6 210.6 0.00 0.2018114 41.0
2021-02-23 10:25:00 55.1 18.5 13.0 55.1 2.1 3.3 2.2 148.1 199.7 0.00 0.2070864 41.1
2021-02-23 10:30:00 55.9 18.2 13.2 55.9 2.4 3.1 1.9 282.3 242.9 0.00 0.2019682 41.2
2021-02-23 10:35:00 56.5 20.9 16.9 56.5 0.0 3.5 1.8 18.2 197.7 0.00 0.2145287 41.3
2021-02-23 10:40:00 56.7 17.0 12.3 56.7 0.0 4.7 2.4 203.4 264.7 0.00 0.2138146 41.4
2021-02-23 10:45:00 56.9 18.3 14.2 56.9 1.7 3.8 1.6 216.6 261.5 0.00 0.2159769 41.5
2021-02-23 10:50:00 58.7 17.2 14.2 58.7 1.9 2.2 1.4 91.3 111.3 0.00 0.2184974 41.6
2021-02-23 10:55:00 60.0 15.8 13.3 60.0 0.0 1.9 0.4 120.5 91.1 0.00 0.2211535 41.7
2021-02-23 11:00:00 60.6 14.1 11.3 60.6 0.0 4.2 1.9 135.7 116.6 0.00 0.2237349 41.8
2021-02-23 11:05:00 61.3 14.4 12.3 61.3 2.8 3.3 1.9 221.6 143.2 0.00 0.2255788 42.0
2021-02-23 11:10:00 61.2 13.7 11.1 61.2 4.7 4.7 1.5 185.7 190.1 0.00 0.2275571 42.1
2021-02-23 11:15:00 60.6 15.7 13.7 60.6 3.5 6.3 4.1 264.4 228.0 0.00 0.2295315 42.2
2021-02-23 11:20:00 61.0 16.1 14.6 61.0 1.9 5.3 2.6 118.8 173.1 0.00 0.2309258 42.4
2021-02-23 11:25:00 61.6 13.8 11.6 61.6 4.0 4.0 2.7 191.5 177.9 0.00 0.2327559 42.5
2021-02-23 11:30:00 62.0 16.6 16.1 62.0 0.0 5.5 1.8 129.5 182.8 0.00 0.2342332 42.7
2021-02-23 11:35:00 62.1 14.2 12.6 62.1 3.0 4.0 2.6 173.1 104.4 0.00 0.2358007 42.8
2021-02-23 11:40:00 63.4 13.1 11.9 63.4 5.3 5.3 2.2 112.8 126.0 0.00 0.2367951 42.9
2021-02-23 11:45:00 62.8 14.0 12.8 62.8 4.6 4.9 2.7 121.5 119.2 0.00 0.2376980 43.1
2021-02-23 11:50:00 63.3 13.6 12.6 63.3 4.4 6.2 2.9 131.6 135.0 0.00 0.2387292 43.2
2021-02-23 11:55:00 63.3 15.3 15.2 63.3 4.6 6.2 3.4 248.8 167.3 0.00 0.2398193 43.4
2021-02-23 12:00:00 62.8 13.6 12.2 62.8 3.7 6.0 3.1 135.0 243.5 0.00 0.2408483 43.5
2021-02-23 12:05:00 63.8 16.2 17.0 63.8 3.1 5.5 2.1 156.7 115.6 0.00 0.2414695 43.6
2021-02-23 12:10:00 64.4 15.8 17.0 64.4 3.8 5.6 3.0 160.6 157.8 0.00 0.2421926 43.8
2021-02-23 12:15:00 64.9 12.4 11.7 64.9 4.7 10.1 4.7 202.8 163.5 0.00 0.2427494 43.9
2021-02-23 12:20:00 64.8 11.7 10.4 64.8 6.5 8.7 5.9 219.9 170.7 0.00 0.2424542 44.0
2021-02-23 12:25:00 65.1 11.1 9.5 65.1 4.7 8.3 5.5 218.6 183.4 0.00 0.2423500 44.1
2021-02-23 12:30:00 65.6 11.4 10.4 65.6 8.3 9.0 5.2 223.3 183.2 0.00 0.2423929 44.2
2021-02-23 12:35:00 66.5 11.1 10.5 66.5 6.9 8.7 5.9 188.2 252.7 0.00 0.2420940 44.3
2021-02-23 12:40:00 66.6 13.0 14.2 66.6 1.9 8.0 4.7 162.8 183.8 0.00 0.2415923 44.4
2021-02-23 12:45:00 66.7 10.4 9.3 66.7 3.8 7.2 3.1 244.5 233.2 0.00 0.2415510 44.5
2021-02-23 12:50:00 67.4 9.3 7.2 67.4 4.0 8.1 3.1 247.8 234.1 0.00 0.2408696 44.6
2021-02-23 12:55:00 67.6 10.9 11.0 67.6 7.6 10.8 5.0 190.4 188.5 0.00 0.2403099 44.7
2021-02-23 13:00:00 67.5 10.4 9.8 67.5 4.2 9.4 5.8 332.9 210.6 0.00 0.2390032 44.9
2021-02-23 13:05:00 68.3 9.6 8.6 68.3 2.1 6.7 3.3 216.9 217.9 0.00 0.2377876 45.0
2021-02-23 13:10:00 68.8 9.4 8.5 68.8 6.9 6.9 3.7 171.1 148.9 0.00 0.2368014 45.1
2021-02-23 13:15:00 69.0 10.3 10.8 69.0 4.6 8.1 5.4 181.2 196.0 0.00 0.2356012 45.3
2021-02-23 13:20:00 69.7 9.5 9.5 69.7 5.1 9.9 6.7 194.1 195.4 0.00 0.2339452 45.4
2021-02-23 13:25:00 69.6 8.6 7.3 69.6 4.9 7.1 4.9 261.4 190.0 0.00 0.2324645 45.6
2021-02-23 13:30:00 70.1 9.2 9.1 70.1 6.7 6.7 4.9 181.7 231.7 0.00 0.2308220 45.8
2021-02-23 13:35:00 69.6 8.8 7.9 69.6 7.1 11.5 8.1 205.5 197.7 0.00 0.2285446 46.0
2021-02-23 13:40:00 69.9 9.2 8.8 69.9 5.3 11.5 6.1 164.6 209.3 0.00 0.2265925 46.1
2021-02-23 13:45:00 70.6 10.5 12.3 70.6 4.6 9.0 5.5 224.8 196.8 0.00 0.2246631 46.3
2021-02-23 13:50:00 71.0 9.4 10.2 71.0 5.6 9.4 6.5 235.2 188.4 0.00 0.2227118 46.5
2021-02-23 13:55:00 71.5 7.1 4.4 71.5 9.0 12.1 6.9 192.6 214.4 0.00 0.2206301 46.7
2021-02-23 14:00:00 71.1 7.8 6.0 71.1 8.5 13.1 9.5 277.5 258.3 0.00 0.2181723 46.8
2021-02-23 14:05:00 71.6 8.0 7.2 71.6 6.3 13.3 8.6 224.1 233.7 0.00 0.2156931 47.0
2021-02-23 14:10:00 71.2 7.1 4.2 71.2 7.1 14.4 8.9 263.7 236.8 0.00 0.2126373 47.1
2021-02-23 14:15:00 71.9 7.2 5.0 71.9 8.5 12.1 8.9 241.9 248.0 0.00 0.2099937 47.3
2021-02-23 14:20:00 71.3 7.2 4.7 71.3 6.9 17.1 9.5 246.9 243.6 0.00 0.2068615 47.5
2021-02-23 14:25:00 70.8 7.4 4.7 70.8 8.5 13.3 9.8 220.6 239.0 0.00 0.2035866 47.6
2021-02-23 14:30:00 71.3 8.2 7.4 71.3 7.6 13.9 9.2 268.1 221.2 0.00 0.2003535 47.8
2021-02-23 14:35:00 71.5 7.1 4.5 71.5 9.4 14.6 9.5 223.1 236.2 0.00 0.1970988 47.9
2021-02-23 14:40:00 71.6 7.6 6.1 71.6 7.1 11.2 8.1 282.8 254.5 0.00 0.1937381 48.0
2021-02-23 14:45:00 71.7 7.7 6.4 71.7 7.6 14.0 9.7 237.2 231.3 0.00 0.1905792 48.1
2021-02-23 14:50:00 71.7 7.5 5.6 71.7 11.7 14.4 10.2 254.9 241.1 0.00 0.1868021 48.3
2021-02-23 14:55:00 71.5 7.1 4.5 71.5 7.1 13.7 10.6 277.7 248.1 0.00 0.1827433 48.4
2021-02-23 15:00:00 71.7 7.0 4.3 71.7 13.7 15.5 10.2 257.7 246.7 0.00 0.1785012 48.5
2021-02-23 15:05:00 71.5 7.0 4.2 71.5 9.0 14.4 10.2 283.3 256.3 0.00 0.1744777 48.6
2021-02-23 15:10:00 71.7 7.1 4.7 71.7 11.2 11.5 9.1 219.6 236.5 0.00 0.1701566 48.7
2021-02-23 15:15:00 71.4 7.9 6.7 71.4 7.1 9.9 6.1 238.8 222.6 0.00 0.1656362 48.8
2021-02-23 15:20:00 72.2 6.8 4.0 72.2 12.2 13.0 8.4 269.4 230.7 0.00 0.1617376 48.9
2021-02-23 15:25:00 71.8 7.7 6.3 71.8 9.0 13.1 9.0 237.6 256.7 0.00 0.1567717 49.0
2021-02-23 15:30:00 72.2 8.3 8.4 72.2 6.7 13.3 9.1 254.5 234.5 0.00 0.1515851 49.1
2021-02-23 15:35:00 72.5 7.4 6.0 72.5 10.5 11.7 8.5 212.0 255.5 0.00 0.1471208 49.2
2021-02-23 15:40:00 72.8 6.4 3.0 72.8 12.2 13.1 10.0 247.8 239.4 0.00 0.1426048 49.3
2021-02-23 15:45:00 72.6 6.7 3.9 72.6 11.0 14.9 11.0 228.7 245.1 0.00 0.1380391 49.4
2021-02-23 15:50:00 72.8 6.8 4.4 72.8 9.7 11.3 8.6 227.2 243.8 0.00 0.1330757 49.4
2021-02-23 15:55:00 73.0 6.5 3.6 73.0 12.4 13.9 9.1 273.7 233.7 0.00 0.1281386 49.5
2021-02-23 16:00:00 73.3 7.3 6.3 73.3 9.6 12.2 7.5 221.6 240.2 0.00 0.1226240 49.6
2021-02-23 16:05:00 72.8 6.8 4.6 72.8 8.0 10.8 8.9 259.0 235.7 0.00 0.1172545 49.6
2021-02-23 16:10:00 73.4 7.2 6.1 73.4 7.2 13.0 8.3 228.2 231.0 0.00 0.1121480 49.7
2021-02-23 16:15:00 73.2 6.1 2.5 73.2 9.2 9.2 7.2 283.0 256.2 0.00 0.1075301 49.7
2021-02-23 16:20:00 73.6 5.7 1.2 73.6 6.2 14.7 10.3 225.0 240.3 0.00 0.1020478 49.8
2021-02-23 16:25:00 74.0 6.0 2.8 74.0 6.5 12.1 7.8 238.8 239.0 0.00 0.0968028 49.8
2021-02-23 16:30:00 73.6 5.3 -0.3 73.6 9.2 16.7 11.0 228.8 258.6 0.00 0.0913141 49.8
2021-02-23 16:35:00 73.3 4.9 -2.2 73.3 16.2 17.6 13.3 276.6 256.1 0.00 0.0861845 49.9
2021-02-23 16:40:00 73.1 5.5 0.2 73.1 12.2 20.5 13.3 246.0 255.8 0.00 0.0809980 49.9
2021-02-23 16:45:00 72.8 5.5 -0.2 72.8 10.8 13.5 9.3 256.4 252.8 0.00 0.0759240 49.9
2021-02-23 16:50:00 72.6 5.5 -0.3 72.6 9.4 15.1 9.9 265.2 263.2 0.00 0.0706403 50.0
2021-02-23 16:55:00 72.5 5.7 0.3 72.5 7.6 12.6 8.8 263.5 261.0 0.00 0.0655074 50.0
2021-02-23 17:00:00 72.5 5.5 -0.3 72.5 6.3 15.3 9.4 240.7 259.2 0.00 0.0603118 50.0
2021-02-23 17:05:00 72.3 6.3 2.3 72.3 9.0 18.3 10.6 249.7 256.2 0.00 0.0548692 50.1
2021-02-23 17:10:00 72.3 5.8 0.8 72.3 6.7 13.3 8.8 281.2 263.0 0.00 0.0497339 50.1
2021-02-23 17:15:00 71.9 6.1 1.4 71.9 9.6 17.1 11.8 249.9 254.2 0.00 0.0446031 50.1
2021-02-23 17:20:00 71.7 6.1 1.3 71.7 8.0 12.4 9.4 255.3 257.8 0.00 0.0390198 50.1
2021-02-23 17:25:00 71.4 5.9 0.5 71.4 13.0 18.1 11.2 226.7 262.5 0.00 0.0325489 50.1
2021-02-23 17:30:00 71.4 6.6 2.8 71.4 8.8 13.3 9.4 247.3 255.7 0.00 0.0259526 50.1
2021-02-23 17:35:00 70.8 6.5 1.9 70.8 6.7 13.0 9.1 292.6 252.9 0.00 0.0196385 50.1
2021-02-23 17:40:00 70.1 7.0 3.1 70.1 9.9 12.4 7.9 252.0 255.5 0.00 0.0139603 50.1
2021-02-23 17:45:00 69.7 7.2 3.3 69.7 8.0 10.1 7.6 213.3 252.0 0.00 0.0079234 50.1
2021-02-23 17:50:00 69.7 7.5 4.2 69.7 7.6 11.5 8.6 261.2 247.4 0.00 0.0036730 50.1
2021-02-23 17:55:00 69.1 7.1 2.6 69.1 8.7 10.1 7.2 288.8 255.3 0.00 0.0027180 50.1
2021-02-23 18:00:00 68.7 6.6 0.7 68.7 6.9 9.4 7.2 250.8 259.9 0.00 0.0018942 50.0
2021-02-23 18:05:00 68.4 6.6 0.7 68.4 7.4 8.3 6.5 254.7 259.2 0.00 0.0011915 50.0
2021-02-23 18:10:00 68.0 6.6 0.4 68.0 7.8 10.3 6.9 259.7 258.5 0.00 0.0006705 50.0
2021-02-23 18:15:00 67.3 6.8 0.3 67.3 6.9 8.3 6.1 250.6 254.0 0.00 0.0003272 50.0
2021-02-23 18:20:00 67.0 6.7 -0.0 67.0 8.3 8.3 6.2 281.1 258.3 0.00 0.0001373 49.9
2021-02-23 18:25:00 66.8 6.8 0.2 66.8 5.8 9.4 7.1 265.8 257.6 0.00 0.0000364 49.9
2021-02-23 18:30:00 66.3 7.0 0.3 66.3 6.2 8.7 6.1 262.4 262.5 0.00 0.0000000 49.9
2021-02-23 18:35:00 66.0 7.0 0.2 66.0 2.8 6.7 4.8 247.1 258.7 0.00 0.0000000 49.8
2021-02-23 18:40:00 65.5 7.3 0.6 65.5 1.5 5.6 3.5 236.9 265.1 0.00 0.0000000 49.8
2021-02-23 18:45:00 65.0 7.4 0.5 65.0 0.8 5.5 2.7 325.0 272.6 0.00 0.0000000 49.7
2021-02-23 18:50:00 65.0 7.7 1.5 65.0 0.8 3.8 1.7 269.1 270.9 0.00 0.0000000 49.7
2021-02-23 18:55:00 64.5 7.8 1.1 64.5 0.8 3.1 0.9 338.3 286.9 0.00 0.0000000 49.7
2021-02-23 19:00:00 63.5 8.0 0.9 63.5 0.0 0.8 0.0 57.4 322.2 0.00 0.0000121 49.6
2021-02-23 19:05:00 63.0 8.1 1.0 63.0 0.0 1.7 0.3 241.2 272.6 0.00 0.0000384 49.6
2021-02-23 19:10:00 62.5 8.6 2.0 62.5 0.0 0.0 0.0 234.7 0.0 0.00 0.0000586 49.5
2021-02-23 19:15:00 61.3 9.0 2.0 61.3 0.0 0.0 0.0 82.5 0.0 0.00 0.0000505 49.5
2021-02-23 19:20:00 60.2 9.1 1.3 60.2 0.0 0.0 0.0 3.5 0.0 0.00 0.0000263 49.4
2021-02-23 19:25:00 60.0 9.8 2.7 60.0 0.0 1.0 0.1 289.8 197.5 0.00 0.0000061 49.4
2021-02-23 19:30:00 60.9 9.2 2.1 60.9 5.3 5.3 0.5 258.6 268.1 0.00 0.0000020 49.3
2021-02-23 19:35:00 60.3 9.9 3.2 60.3 0.0 3.8 0.3 333.7 316.7 0.00 0.0000000 49.3
2021-02-23 19:40:00 59.8 10.0 3.1 59.8 0.0 0.0 0.0 11.9 0.0 0.00 0.0000020 49.2
2021-02-23 19:45:00 59.4 10.1 2.9 59.4 0.0 0.0 0.0 321.5 0.0 0.00 0.0000020 49.1
2021-02-23 19:50:00 59.1 10.0 2.5 59.1 0.0 0.0 0.0 0.7 0.0 0.00 0.0000000 49.0
2021-02-23 19:55:00 59.3 10.7 4.0 59.3 0.0 0.8 0.2 44.5 18.8 0.00 0.0000000 49.0
2021-02-23 20:00:00 59.0 10.6 3.6 59.0 0.0 0.8 0.1 72.1 216.8 0.00 0.0000121 48.9
2021-02-23 20:05:00 58.5 10.7 3.4 58.5 3.1 3.1 0.6 337.5 348.3 0.00 0.0000141 48.9
2021-02-23 20:10:00 58.4 10.8 3.6 58.4 1.3 3.3 2.1 341.3 345.7 0.00 0.0000202 48.8
2021-02-23 20:15:00 58.7 10.6 3.4 58.7 0.0 2.2 0.5 22.0 354.8 0.00 0.0000020 48.7
2021-02-23 20:20:00 58.8 11.0 4.3 58.8 0.0 0.0 0.0 339.4 0.0 0.00 0.0000061 48.7
2021-02-23 20:25:00 57.7 11.4 4.3 57.7 0.0 0.0 0.0 5.1 0.0 0.00 0.0000243 48.6
2021-02-23 20:30:00 57.3 11.6 4.4 57.3 0.0 0.0 0.0 1.5 0.0 0.00 0.0000424 48.5
2021-02-23 20:35:00 56.3 12.0 4.2 56.3 0.0 0.0 0.0 152.7 0.0 0.00 0.0000465 48.5
2021-02-23 20:40:00 55.8 12.4 4.5 55.8 0.0 0.0 0.0 15.7 0.0 0.00 0.0000202 48.4
2021-02-23 20:45:00 56.5 11.6 3.8 56.5 0.0 0.8 0.0 16.5 43.1 0.00 0.0000263 48.3
2021-02-23 20:50:00 55.9 13.9 7.1 55.9 0.0 0.0 0.0 173.6 0.0 0.00 0.0000081 48.2
2021-02-23 20:55:00 55.2 15.3 8.7 55.2 0.0 0.0 0.0 169.3 0.0 0.00 0.0000020 48.2
2021-02-23 21:00:00 53.8 15.0 7.2 53.8 0.0 0.0 0.0 192.4 0.0 0.00 0.0000000 48.1
2021-02-23 21:05:00 52.8 16.4 8.3 52.8 0.0 0.0 0.0 203.2 0.0 0.00 0.0000000 48.0
2021-02-23 21:10:00 51.7 16.1 7.0 51.7 0.0 0.0 0.0 238.7 0.0 0.00 0.0000000 48.0
2021-02-23 21:15:00 51.0 17.8 8.7 51.0 0.0 0.0 0.0 230.9 0.0 0.00 0.0000000 47.9
2021-02-23 21:20:00 50.0 17.8 7.9 50.0 0.0 0.0 0.0 235.1 0.0 0.00 0.0000000 47.8
2021-02-23 21:25:00 49.6 19.5 9.5 49.6 0.0 0.0 0.0 236.8 0.0 0.00 0.0000000 47.8
2021-02-23 21:30:00 48.9 19.3 8.8 48.9 0.0 0.0 0.0 233.7 0.0 0.00 0.0000000 47.7
2021-02-23 21:35:00 48.4 19.5 8.6 48.4 0.0 0.0 0.0 210.2 0.0 0.00 0.0000000 47.6
2021-02-23 21:40:00 48.6 19.2 8.3 48.6 0.0 0.0 0.0 162.4 0.0 0.00 0.0000000 47.6
2021-02-23 21:45:00 48.2 19.2 8.0 48.2 0.0 0.0 0.0 146.7 0.0 0.00 0.0000040 47.5
2021-02-23 21:50:00 47.9 20.8 9.6 47.9 0.0 0.0 0.0 143.7 0.0 0.00 0.0000121 47.4
2021-02-23 21:55:00 47.1 21.7 9.8 47.1 0.0 0.0 0.0 167.2 0.0 0.00 0.0000040 47.4
2021-02-23 22:00:00 46.5 21.4 9.0 46.5 0.0 0.0 0.0 109.5 0.0 0.00 0.0000081 47.3
2021-02-23 22:05:00 46.0 21.7 8.9 46.0 0.0 0.0 0.0 311.8 0.0 0.00 0.0000081 47.2
2021-02-23 22:10:00 45.8 21.7 8.8 45.8 0.0 0.0 0.0 103.8 0.0 0.00 0.0000162 47.2
2021-02-23 22:15:00 46.0 21.5 8.7 46.0 0.0 0.0 0.0 104.5 0.0 0.00 0.0000384 47.1
2021-02-23 22:20:00 46.4 21.3 8.9 46.4 0.0 0.0 0.0 150.2 0.0 0.00 0.0000465 47.0
2021-02-23 22:25:00 46.2 22.0 9.4 46.2 0.0 0.0 0.0 208.9 0.0 0.00 0.0000364 47.0
2021-02-23 22:30:00 46.1 23.9 11.2 46.1 0.0 0.0 0.0 238.5 0.0 0.00 0.0000283 46.9
2021-02-23 22:35:00 45.7 22.7 9.7 45.7 0.0 0.0 0.0 245.5 0.0 0.00 0.0000000 46.8
2021-02-23 22:40:00 44.9 23.0 9.3 44.9 0.0 0.0 0.0 323.8 0.0 0.00 0.0000040 46.8
2021-02-23 22:45:00 44.7 21.6 7.8 44.7 0.0 0.0 0.0 326.1 0.0 0.00 0.0000040 46.7
2021-02-23 22:50:00 45.1 21.7 8.1 45.1 0.0 0.0 0.0 26.3 0.0 0.00 0.0000000 46.7
2021-02-23 22:55:00 45.2 22.8 9.3 45.2 0.0 0.0 0.0 193.3 0.0 0.00 0.0000000 46.6
2021-02-23 23:00:00 46.1 21.7 9.1 46.1 0.0 0.0 0.0 35.6 0.0 0.00 0.0000000 46.5
2021-02-23 23:05:00 45.6 23.8 10.6 45.6 0.0 0.0 0.0 188.5 0.0 0.00 0.0000000 46.5
2021-02-23 23:10:00 45.4 23.0 9.7 45.4 0.0 0.0 0.0 201.7 0.0 0.00 0.0000000 46.4
2021-02-23 23:15:00 45.0 24.0 10.3 45.0 0.0 0.0 0.0 201.7 0.0 0.00 0.0000000 46.3
2021-02-23 23:20:00 44.4 25.0 10.8 44.4 0.0 0.0 0.0 203.0 0.0 0.00 0.0000000 46.3
2021-02-23 23:25:00 43.8 27.0 12.0 43.8 0.0 0.0 0.0 342.1 0.0 0.00 0.0000000 46.2
2021-02-23 23:30:00 43.3 28.1 12.4 43.3 0.0 0.0 0.0 176.8 0.0 0.00 0.0000000 46.1
2021-02-23 23:35:00 42.9 27.4 11.5 42.9 0.0 0.0 0.0 205.4 0.0 0.00 0.0000000 46.1
2021-02-23 23:40:00 42.8 27.4 11.4 42.8 0.0 0.0 0.0 205.4 0.0 0.00 0.0000000 46.0
2021-02-23 23:45:00 42.9 27.0 11.1 42.9 0.0 0.0 0.0 185.5 0.0 0.00 0.0000000 46.0
2021-02-23 23:50:00 42.2 28.5 11.8 42.2 0.0 0.0 0.0 161.2 0.0 0.00 0.0000020 45.9
2021-02-23 23:55:00 41.7 28.1 11.0 41.7 0.0 0.0 0.0 142.7 0.0 0.00 0.0000000 45.8
2021-02-24 00:00:00 41.2 28.6 11.0 41.2 0.0 0.0 0.0 116.4 0.0 0.00 0.0000000 45.8

Data is courtesy of the NM Climate Center. DO NOT USE IN LEGAL PROCEEDINGS.